Time;durP1;ratioP1;P1;durP2;ratioP2;P2;SDS_P1;SDS_P2;PMS_P1;PMS_P2;Temp;Humidity;BMP_temperature;BMP_pressure;BME280_temperature;BME280_humidity;BME280_pressure;Samples;Min_cycle;Max_cycle;Signal;HPM_P1;HPM_P2
2022/11/23 00:00:28;;;;;;;40.30;24.90;;;;;;;0.41;98.68;98553.71;433318;1279;142576;-70
2022/11/23 00:10:34;;;;;;;39.80;22.80;;;;;;;0.39;98.55;98552.38;426796;1287;141522;-69
2022/11/23 00:20:41;;;;;;;29.30;20.30;;;;;;;0.35;98.59;98541.86;433418;1288;145982;-68
2022/11/23 00:30:51;;;;;;;35.50;22.00;;;;;;;0.27;98.31;98540.28;434747;1288;142518;-70
2022/11/23 00:41:01;;;;;;;34.80;21.00;;;;;;;0.22;98.28;98549.42;434778;1286;142319;-70
2022/11/23 00:51:10;;;;;;;39.50;23.50;;;;;;;0.16;98.21;98545.89;434168;1284;143910;-69
2022/11/23 01:01:17;;;;;;;38.30;22.20;;;;;;;0.11;98.28;98543.13;434764;1287;142478;-69
2022/11/23 01:11:24;;;;;;;35.00;21.30;;;;;;;0.10;98.23;98545.05;434907;1278;142509;-69
2022/11/23 01:21:29;;;;;;;;;;;;;;;0.11;98.37;98548.44;433830;1285;142418;-70
2022/11/23 01:31:35;;;;;;;32.60;20.10;;;;;;;0.10;98.18;98557.77;433653;1287;129342;-70
2022/11/23 01:41:47;;;;;;;31.10;18.50;;;;;;;0.09;98.22;98556.63;434148;1281;145132;-69
2022/11/23 01:51:57;;;;;;;30.40;18.50;;;;;;;0.06;97.90;98551.91;434922;1289;142196;-71
2022/11/23 02:02:04;;;;;;;29.70;21.30;;;;;;;0.06;97.90;98556.58;431972;1286;142741;-70
2022/11/23 02:12:12;;;;;;;34.00;19.60;;;;;;;0.06;97.90;98563.64;423193;1287;142811;-69
2022/11/23 02:22:26;;;;;;;29.90;19.40;;;;;;;0.01;97.83;98557.81;434892;1288;144773;-69
2022/11/23 02:32:34;;;;;;;29.90;19.60;;;;;;;-0.01;98.01;98551.32;434848;1285;142486;-69
2022/11/23 02:42:40;;;;;;;28.80;18.60;;;;;;;0.00;97.83;98556.80;434250;1294;198288;-70
2022/11/23 02:52:46;;;;;;;30.10;18.40;;;;;;;0.00;97.59;98561.25;434765;1289;143343;-70
2022/11/23 03:02:51;;;;;;;33.50;19.80;;;;;;;0.03;97.72;98566.33;433486;1285;146610;-69
2022/11/23 03:12:57;;;;;;;27.20;19.30;;;;;;;0.04;97.53;98565.77;418091;1285;143203;-68
2022/11/23 03:23:03;;;;;;;37.40;22.00;;;;;;;0.01;97.60;98575.33;434988;1287;143948;-69
2022/11/23 03:33:09;;;;;;;35.50;20.10;;;;;;;0.02;97.56;98575.64;434062;1289;142930;-70
2022/11/23 03:43:15;;;;;;;36.50;20.50;;;;;;;0.01;97.84;98576.21;434910;1287;145490;-70
2022/11/23 03:53:20;;;;;;;38.50;19.40;;;;;;;-0.10;97.98;98576.08;434515;1292;142785;-70
2022/11/23 04:03:26;;;;;;;32.20;19.40;;;;;;;-0.16;98.10;98578.02;430396;1285;144192;-69
2022/11/23 04:13:32;;;;;;;32.60;18.90;;;;;;;-0.20;98.14;98570.43;432130;1287;143224;-70
2022/11/23 04:23:38;;;;;;;34.00;20.20;;;;;;;-0.19;98.40;98568.15;434827;1286;143397;-66
2022/11/23 04:33:44;;;;;;;38.40;20.20;;;;;;;-0.16;98.55;98571.99;434546;1281;211130;-70
2022/11/23 04:43:50;;;;;;;32.00;19.00;;;;;;;-0.18;98.11;98560.36;432533;1286;143690;-70
2022/11/23 04:53:56;;;;;;;35.60;22.70;;;;;;;-0.20;98.45;98564.73;431980;1289;144185;-69
2022/11/23 05:04:01;;;;;;;40.30;21.60;;;;;;;-0.24;98.30;98569.86;423002;1285;145327;-69
2022/11/23 05:14:07;;;;;;;39.60;23.20;;;;;;;-0.35;98.63;98556.52;418525;1279;142644;-70
2022/11/23 05:24:13;;;;;;;38.90;22.50;;;;;;;-0.39;99.05;98554.08;433356;1285;145121;-71
2022/11/23 05:34:19;;;;;;;41.00;22.40;;;;;;;-0.44;99.09;98562.33;431968;1294;145061;-72
2022/11/23 05:44:24;;;;;;;39.90;22.00;;;;;;;-0.46;99.59;98562.42;428215;1287;145234;-72
2022/11/23 05:54:30;;;;;;;41.20;21.10;;;;;;;-0.51;99.46;98563.58;434069;1285;143521;-71
2022/11/23 06:04:36;;;;;;;35.80;20.40;;;;;;;-0.56;99.38;98556.91;425839;1293;142881;-71
2022/11/23 06:14:41;;;;;;;33.50;20.00;;;;;;;-0.66;99.54;98566.02;434236;1286;144326;-71
2022/11/23 06:24:47;;;;;;;27.90;16.60;;;;;;;-0.81;99.52;98586.27;434808;1285;142742;-72
2022/11/23 06:34:53;;;;;;;21.10;14.60;;;;;;;-0.89;99.27;98595.11;429295;1287;142918;-71
2022/11/23 06:45:06;;;;;;;22.20;16.30;;;;;;;-0.98;99.07;98596.12;434022;1294;143767;-71
2022/11/23 06:55:12;;;;;;;18.60;12.80;;;;;;;-1.04;99.35;98608.16;434925;1289;143162;-72
2022/11/23 07:05:18;;;;;;;26.20;15.20;;;;;;;-1.05;99.36;98616.44;434671;1288;143656;-71
2022/11/23 07:15:23;;;;;;;24.40;15.20;;;;;;;-0.96;99.25;98615.29;434129;1285;141801;-72
2022/11/23 07:25:29;;;;;;;26.60;15.30;;;;;;;-0.87;99.46;98624.28;425987;1286;146244;-71
2022/11/23 07:35:36;;;;;;;23.00;14.60;;;;;;;-0.87;99.48;98631.67;427860;1288;143004;-71
2022/11/23 07:45:40;;;;;;;;;;;;;;;-0.76;99.58;98632.18;434437;1294;200336;-71
2022/11/23 07:55:46;;;;;;;24.40;15.40;;;;;;;-0.72;99.47;98634.95;425497;1297;139541;-72
2022/11/23 08:05:52;;;;;;;23.40;16.40;;;;;;;-0.68;99.36;98641.19;425411;1292;142571;-72
2022/11/23 08:15:58;;;;;;;28.60;17.00;;;;;;;-0.59;99.48;98650.86;434765;1292;142899;-71
2022/11/23 08:26:05;;;;;;;30.80;17.30;;;;;;;-0.48;99.21;98652.59;434908;1284;142919;-71
2022/11/23 08:36:19;;;;;;;30.30;17.80;;;;;;;-0.40;99.00;98661.25;428990;1285;143222;-70
2022/11/23 08:46:24;;;;;;;26.70;16.50;;;;;;;-0.24;99.10;98665.33;434765;1289;144223;-71
2022/11/23 08:56:30;;;;;;;22.40;14.50;;;;;;;-0.04;98.84;98676.17;428609;1292;142014;-72
2022/11/23 09:06:36;;;;;;;27.40;16.30;;;;;;;0.06;98.24;98669.27;434089;1289;146917;-71
2022/11/23 09:16:41;;;;;;;25.30;16.20;;;;;;;0.23;97.93;98656.63;434705;1289;141727;-71
2022/11/23 09:26:47;;;;;;;23.30;15.70;;;;;;;0.42;97.49;98646.81;429386;1286;142513;-70
2022/11/23 09:36:53;;;;;;;23.70;16.70;;;;;;;0.65;97.36;98636.48;434765;1286;142844;-71
2022/11/23 09:47:16;;;;;;;28.00;15.90;;;;;;;0.96;96.82;98641.46;434342;1288;143473;-70
2022/11/23 09:57:25;;;;;;;25.40;15.90;;;;;;;1.36;96.29;98620.72;434145;1286;142936;-71
2022/11/23 10:07:47;;;;;;;23.40;15.90;;;;;;;1.66;95.54;98606.53;434579;1287;143342;-70
2022/11/23 10:18:14;;;;;;;22.00;16.50;;;;;;;2.44;94.81;98597.19;418551;1286;142994;-71
2022/11/23 10:28:22;;;;;;;22.00;14.70;;;;;;;3.00;93.55;98585.92;421840;1279;142432;-63
2022/11/23 10:38:29;;;;;;;18.90;13.50;;;;;;;3.48;91.79;98576.46;434810;1281;144510;-63
2022/11/23 10:48:36;;;;;;;21.80;15.00;;;;;;;3.67;91.07;98569.59;424519;1279;143654;-71
2022/11/23 10:58:46;;;;;;;21.20;15.20;;;;;;;3.58;90.01;98568.66;433410;1287;142630;-71
2022/11/23 11:08:54;;;;;;;18.90;13.70;;;;;;;3.46;89.43;98570.70;434104;1286;143071;-72
2022/11/23 11:19:00;;;;;;;23.50;14.70;;;;;;;3.34;89.03;98570.74;434778;1281;143498;-72
2022/11/23 11:29:08;;;;;;;16.70;11.60;;;;;;;3.30;88.82;98578.09;434817;1279;142954;-72
2022/11/23 11:39:20;;;;;;;21.70;12.70;;;;;;;3.42;89.08;98574.52;434014;1287;144283;-72
2022/11/23 11:49:30;;;;;;;15.30;11.90;;;;;;;3.43;88.50;98562.53;429117;1288;144800;-72
2022/11/23 11:59:42;;;;;;;18.90;12.40;;;;;;;3.39;87.89;98548.53;425579;1295;141930;-71
2022/11/23 12:09:50;;;;;;;21.60;15.30;;;;;;;3.38;88.02;98549.29;433051;1278;211758;-71
2022/11/23 12:20:05;;;;;;;25.20;15.80;;;;;;;3.74;87.96;98561.83;434859;1293;144111;-72
2022/11/23 12:30:25;;;;;;;24.90;14.60;;;;;;;3.62;86.99;98562.77;428588;1286;145394;-71
2022/11/23 12:40:57;;;;;;;23.70;15.40;;;;;;;3.20;86.63;98561.78;433274;1288;143940;-71
2022/11/23 12:51:13;;;;;;;25.50;15.50;;;;;;;2.94;86.99;98558.02;433990;1288;144424;-71
2022/11/23 13:01:22;;;;;;;19.70;14.20;;;;;;;2.65;87.20;98556.31;434893;1286;141648;-72
2022/11/23 13:11:47;;;;;;;27.70;15.50;;;;;;;2.44;87.28;98554.70;434737;1281;142555;-71
2022/11/23 13:22:05;;;;;;;29.10;17.50;;;;;;;2.20;87.47;98547.38;434350;1295;213324;-71
2022/11/23 13:32:46;;;;;;;32.00;18.50;;;;;;;1.99;87.98;98561.95;434669;1289;197223;-71
2022/11/23 13:42:54;;;;;;;23.60;15.40;;;;;;;1.68;88.24;98564.38;427902;1286;198309;-71
2022/11/23 13:52:58;;;;;;;;;;;;;;;1.42;88.75;98566.85;430864;1280;143744;-71
2022/11/23 14:03:38;;;;;;;34.20;21.60;;;;;;;1.24;89.14;98570.51;424459;1286;130350;-70
2022/11/23 14:13:51;;;;;;;31.60;21.30;;;;;;;1.02;89.57;98593.30;434676;1289;143674;-71
2022/11/23 14:24:37;;;;;;;33.00;21.90;;;;;;;0.90;89.97;98604.30;426279;1287;144125;-71
2022/11/23 14:34:54;;;;;;;26.70;17.60;;;;;;;0.76;90.27;98607.79;431779;1278;142462;-71
2022/11/23 14:45:13;;;;;;;35.00;21.90;;;;;;;0.60;90.54;98604.12;433957;1287;143364;-72
2022/11/23 14:55:21;;;;;;;29.40;20.60;;;;;;;0.60;90.88;98611.02;434070;1282;142416;-72
2022/11/23 15:05:30;;;;;;;33.40;23.30;;;;;;;0.58;91.17;98622.97;426483;1286;146686;-72
2022/11/23 15:15:38;;;;;;;35.10;23.30;;;;;;;0.46;91.33;98623.41;425135;1281;142578;-70
2022/11/23 15:25:53;;;;;;;36.90;24.80;;;;;;;0.39;91.68;98629.17;420202;1287;143118;-70
2022/11/23 15:35:59;;;;;;;41.80;25.10;;;;;;;0.38;91.87;98637.14;429609;1282;143273;-71
2022/11/23 15:46:13;;;;;;;35.60;23.50;;;;;;;0.35;92.10;98647.94;424269;1285;145864;-70
2022/11/23 15:56:27;;;;;;;38.70;23.90;;;;;;;0.36;92.11;98654.95;434629;1280;142567;-71
2022/11/23 16:06:40;;;;;;;33.10;22.10;;;;;;;0.30;92.25;98659.65;419098;1279;199982;-71
2022/11/23 16:16:48;;;;;;;36.20;24.70;;;;;;;0.24;92.39;98658.84;425597;1279;146458;-72
2022/11/23 16:26:53;;;;;;;36.20;24.70;;;;;;;0.16;92.62;98646.02;424987;1280;142736;-71
2022/11/23 16:37:02;;;;;;;56.20;31.90;;;;;;;0.10;92.71;98639.38;426033;1285;142165;-72
2022/11/23 16:47:27;;;;;;;54.40;31.30;;;;;;;0.01;92.85;98649.50;426430;1287;141825;-71
2022/11/23 16:57:35;;;;;;;44.40;27.60;;;;;;;-0.13;92.97;98654.98;433731;1281;142658;-71
2022/11/23 17:07:40;;;;;;;48.40;28.30;;;;;;;-0.19;93.09;98636.92;431238;1286;200366;-71
2022/11/23 17:17:46;;;;;;;64.20;35.00;;;;;;;-0.17;93.70;98647.56;430969;1286;143155;-71
2022/11/23 17:27:52;;;;;;;60.80;32.70;;;;;;;-0.24;93.73;98637.63;433634;1279;185107;-72
2022/11/23 17:37:57;;;;;;;63.30;33.60;;;;;;;-0.26;93.87;98633.93;434626;1280;143057;-71
2022/11/23 17:48:04;;;;;;;61.60;34.20;;;;;;;-0.29;94.17;98642.96;424242;1280;142800;-72
2022/11/23 17:58:11;;;;;;;64.50;33.50;;;;;;;-0.34;94.41;98642.96;427875;1286;142386;-72
2022/11/23 18:08:17;;;;;;;59.10;34.90;;;;;;;-0.38;94.57;98649.83;423977;1279;142721;-73
2022/11/23 18:18:22;;;;;;;52.70;27.30;;;;;;;-0.41;94.49;98651.13;418536;1279;142805;-71
2022/11/23 18:28:29;;;;;;;46.50;26.50;;;;;;;-0.44;94.68;98656.22;432637;1279;200749;-71
2022/11/23 18:38:35;;;;;;;50.40;27.90;;;;;;;-0.51;94.67;98652.66;434674;1285;142688;-71
2022/11/23 18:48:40;;;;;;;;;;;;;;;-0.50;94.74;98655.39;427698;1279;200001;-70
2022/11/23 18:58:47;;;;;;;48.10;27.30;;;;;;;-0.50;94.62;98661.06;421517;1279;128242;-70
2022/11/23 19:08:55;;;;;;;47.00;27.00;;;;;;;-0.54;95.04;98658.95;418949;1284;144934;-72
2022/11/23 19:19:03;;;;;;;44.40;25.20;;;;;;;-0.56;94.98;98654.72;434623;1286;142813;-72
2022/11/23 19:29:08;;;;;;;46.30;28.00;;;;;;;-0.54;95.10;98661.36;433272;1286;142858;-71
2022/11/23 19:39:14;;;;;;;45.60;25.10;;;;;;;-0.52;95.05;98666.96;429358;1285;142945;-72
2022/11/23 19:49:20;;;;;;;41.10;24.80;;;;;;;-0.52;95.05;98670.92;434824;1282;142842;-71
2022/11/23 19:59:26;;;;;;;36.70;23.10;;;;;;;-0.51;95.17;98674.52;419516;1285;144394;-71
2022/11/23 20:09:32;;;;;;;37.10;24.50;;;;;;;-0.52;95.26;98677.98;429062;1279;144284;-71
2022/11/23 20:19:38;;;;;;;37.50;22.20;;;;;;;-0.52;95.48;98681.77;419926;1287;141330;-71
2022/11/23 20:29:44;;;;;;;36.80;23.40;;;;;;;-0.51;95.46;98681.54;418243;1287;142021;-70
2022/11/23 20:39:51;;;;;;;44.70;25.20;;;;;;;-0.51;95.47;98677.73;434612;1286;142326;-63
2022/11/23 20:49:57;;;;;;;44.10;24.70;;;;;;;-0.53;95.66;98667.54;433312;1286;142531;-65
2022/11/23 21:00:03;;;;;;;37.80;21.30;;;;;;;-0.51;95.74;98677.95;432837;1287;142400;-63
2022/11/23 21:14:04;;;;;;;34.50;20.60;;;;;;;-0.52;95.54;98673.32;432126;1295;143096;-64
2022/11/23 21:20:35;;;;;;;39.20;22.90;;;;;;;-0.48;95.52;98679.55;434622;1287;143375;-64
2022/11/23 21:30:42;;;;;;;35.60;22.30;;;;;;;-0.50;95.49;98681.52;434079;1290;144754;-64
2022/11/23 21:40:48;;;;;;;48.60;26.10;;;;;;;-0.51;95.40;98696.52;434460;1288;183296;-65
2022/11/23 21:51:01;;;;;;;42.50;22.70;;;;;;;-0.58;95.54;98706.02;432979;1278;143167;-64
2022/11/23 22:01:11;;;;;;;39.10;19.60;;;;;;;-0.66;95.72;98709.38;424534;1286;146222;-66
2022/11/23 22:11:19;;;;;;;45.20;23.70;;;;;;;-0.67;95.79;98715.93;434858;1286;143415;-63
2022/11/23 22:21:26;;;;;;;49.80;27.30;;;;;;;-0.66;95.97;98712.98;433953;1294;143335;-63
2022/11/23 22:31:33;;;;;;;49.60;27.00;;;;;;;-0.74;96.14;98717.86;434588;1284;194269;-63
2022/11/23 22:41:39;;;;;;;41.40;24.20;;;;;;;-0.78;96.22;98717.14;418266;1279;142078;-64
2022/11/23 22:51:44;;;;;;;;;;;;;;;-0.85;96.20;98709.10;424401;1288;142539;-63
2022/11/23 23:01:49;;;;;;;39.10;21.70;;;;;;;-0.90;96.40;98710.62;425377;1288;129238;-63
2022/11/23 23:11:55;;;;;;;41.30;25.40;;;;;;;-0.88;96.30;98716.06;434018;1285;144014;-63
2022/11/23 23:22:01;;;;;;;39.80;22.70;;;;;;;-0.90;96.19;98724.04;434825;1287;144194;-70
2022/11/23 23:32:07;;;;;;;37.20;22.40;;;;;;;-0.90;95.98;98730.90;434792;1292;142720;-71
2022/11/23 23:42:13;;;;;;;42.20;22.40;;;;;;;-0.89;95.96;98731.92;434162;1286;146493;-64
2022/11/23 23:52:19;;;;;;;44.40;23.60;;;;;;;-0.88;96.23;98729.63;434791;1279;143210;-64
